Antelope, Montana
Current Conditions -  °F | °C
As of 12:03 AM on Friday 28 Nov 2014 (Local Time) from KISN Reporting Station
Broken Clouds Broken Clouds  
Wind Chill:   Ceiling: 1300
Heat Index: 16°   Visibility: 10mi
Dew Point: 12°   Wind: 6mph
Humidity: 84%   Direction: 80°E
Pressure: 29.76"   Gusts: NA
Location:  48.69°N, 104.46°W
Report Text: KISN 280703Z AUTO 08005KT 10SM FEW007 BKN013 M09/M11 A2976 RMK AO2 T10891111
Loading
Personal Weather Stations






























Interactive Weather Map New forecast layout! Learn more

10-Day Weather Forecast

Advertisements
Track Severe Weather on mobile